createdAt,value
2023-05-08T00:01:34.466Z,16.90
2023-05-08T00:03:36.133Z,14.77
2023-05-08T00:05:37.944Z,14.68
2023-05-08T00:07:39.388Z,13.15
2023-05-08T00:09:40.796Z,10.80
2023-05-08T00:11:42.389Z,12.07
2023-05-08T00:13:43.797Z,11.85
2023-05-08T00:15:45.349Z,10.90
2023-05-08T00:17:47.390Z,9.70
2023-05-08T00:19:48.905Z,8.80
2023-05-08T00:21:50.326Z,8.50
2023-05-08T00:23:51.936Z,8.63
2023-05-08T00:25:53.360Z,8.82
2023-05-08T00:27:54.783Z,8.52
2023-05-08T00:29:56.215Z,8.27
2023-05-08T00:31:57.704Z,7.85
2023-05-08T00:33:59.220Z,13.73
2023-05-08T00:36:02.373Z,13.85
2023-05-08T00:38:03.805Z,13.02
2023-05-08T00:40:05.904Z,10.73
2023-05-08T00:42:07.735Z,12.73
2023-05-08T00:44:09.215Z,10.85
2023-05-08T00:46:11.447Z,10.55
2023-05-08T00:48:13.110Z,10.63
2023-05-08T00:50:14.911Z,11.02
2023-05-08T00:52:17.569Z,11.52
2023-05-08T00:54:19.545Z,11.57
2023-05-08T00:56:23.677Z,13.57
2023-05-08T00:58:27.008Z,13.15
2023-05-08T01:00:29.123Z,13.32
2023-05-08T01:02:31.488Z,14.93
2023-05-08T01:04:34.893Z,13.55
2023-05-08T01:06:37.289Z,14.95
2023-05-08T01:08:39.069Z,14.73
2023-05-08T01:10:48.092Z,15.77
2023-05-08T01:13:26.885Z,15.80
2023-05-08T01:15:38.412Z,16.33
2023-05-08T01:17:48.892Z,16.55
2023-05-08T01:20:03.350Z,15.63
2023-05-08T01:22:29.260Z,16.63
2023-05-08T01:25:16.528Z,16.08
2023-05-08T01:27:42.270Z,22.58
2023-05-08T01:30:21.996Z,26.70
2023-05-08T01:32:30.039Z,22.58
2023-05-08T01:34:33.244Z,21.42
2023-05-08T01:36:52.101Z,23.38
2023-05-08T01:39:10.541Z,41.20
2023-05-08T01:41:18.429Z,40.45
2023-05-08T01:43:30.186Z,37.20
2023-05-08T01:45:44.871Z,29.77
2023-05-08T01:47:51.783Z,25.95
2023-05-08T01:50:21.088Z,29.15
2023-05-08T01:52:34.443Z,24.83
2023-05-08T01:54:55.475Z,24.63
2023-05-08T01:56:59.516Z,21.80
2023-05-08T01:59:02.335Z,21.08
2023-05-08T02:01:04.850Z,21.02
2023-05-08T02:03:08.630Z,20.73
2023-05-08T02:05:10.960Z,21.90
2023-05-08T02:07:12.659Z,21.25
2023-05-08T02:09:15.309Z,21.73
2023-05-08T02:11:18.308Z,19.63
2023-05-08T02:13:21.857Z,20.30
2023-05-08T02:15:25.939Z,20.20
2023-05-08T02:17:28.900Z,20.27
2023-05-08T02:19:31.422Z,20.42
2023-05-08T02:21:33.984Z,23.85
2023-05-08T02:23:36.057Z,19.75
2023-05-08T02:25:38.963Z,22.52
2023-05-08T02:27:43.499Z,24.27
2023-05-08T02:29:45.044Z,21.25
2023-05-08T02:31:48.151Z,21.38
2023-05-08T02:33:51.828Z,22.48
2023-05-08T02:37:57.116Z,22.42
2023-05-08T02:39:58.988Z,21.48
2023-05-08T02:42:00.626Z,22.95
2023-05-08T02:44:02.242Z,25.00
2023-05-08T02:46:21.041Z,21.67
2023-05-08T02:48:33.299Z,21.30
2023-05-08T02:50:48.536Z,23.60
2023-05-08T02:52:54.384Z,25.75
2023-05-08T02:55:08.688Z,23.40
2023-05-08T02:57:28.627Z,22.20
2023-05-08T02:59:42.364Z,21.13
2023-05-08T03:02:02.291Z,20.52
2023-05-08T03:04:07.620Z,22.65
2023-05-08T03:06:26.346Z,20.88
2023-05-08T03:08:30.959Z,21.80
2023-05-08T03:10:35.129Z,20.45
2023-05-08T03:12:42.789Z,21.40
2023-05-08T03:14:54.810Z,20.80
2023-05-08T03:16:59.067Z,21.45
2023-05-08T03:19:03.806Z,21.60
2023-05-08T03:21:07.255Z,21.08
2023-05-08T03:23:10.094Z,21.05
2023-05-08T03:25:14.139Z,21.58
2023-05-08T03:27:16.783Z,23.90
2023-05-08T03:29:19.752Z,21.92
2023-05-08T03:31:23.017Z,20.20
2023-05-08T03:33:25.519Z,20.35
2023-05-08T03:35:27.718Z,20.15
2023-05-08T03:37:29.645Z,19.98
2023-05-08T03:39:31.319Z,20.48
2023-05-08T03:41:32.922Z,21.65
2023-05-08T03:43:36.743Z,21.05
2023-05-08T03:45:40.555Z,21.77
2023-05-08T03:47:44.318Z,23.00
2023-05-08T03:49:47.578Z,22.85
2023-05-08T03:51:49.773Z,21.45
2023-05-08T03:53:51.184Z,22.52
2023-05-08T03:55:52.697Z,22.67
2023-05-08T03:58:04.516Z,22.48
2023-05-08T04:00:24.632Z,21.73
2023-05-08T04:02:50.557Z,21.73
2023-05-08T04:05:00.551Z,22.20
2023-05-08T04:07:34.778Z,21.05
2023-05-08T04:09:41.708Z,23.08
2023-05-08T04:11:52.294Z,21.33
2023-05-08T04:14:00.660Z,22.63
2023-05-08T04:16:15.836Z,20.27
2023-05-08T04:18:22.181Z,18.95
2023-05-08T04:20:27.154Z,17.75
2023-05-08T04:22:31.731Z,19.27
2023-05-08T04:24:37.119Z,20.95
2023-05-08T04:26:39.739Z,17.35
2023-05-08T04:28:41.544Z,16.70
2023-05-08T04:30:43.093Z,17.55
2023-05-08T04:32:46.631Z,17.70
2023-05-08T04:34:48.943Z,14.98
2023-05-08T04:36:50.488Z,14.75
2023-05-08T04:38:51.957Z,14.40
2023-05-08T04:40:53.526Z,13.05
2023-05-08T04:42:55.485Z,12.65
2023-05-08T04:44:56.888Z,12.43
2023-05-08T04:46:58.393Z,12.02
2023-05-08T04:48:59.901Z,11.25
2023-05-08T04:51:01.297Z,11.07
2023-05-08T04:53:02.974Z,10.85
2023-05-08T04:55:05.044Z,11.98
2023-05-08T04:57:06.455Z,11.15
2023-05-08T04:59:08.019Z,10.02
2023-05-08T05:01:09.714Z,9.77
2023-05-08T05:03:11.315Z,9.95
2023-05-08T05:05:13.195Z,9.60
2023-05-08T05:07:15.037Z,9.02
2023-05-08T05:09:16.465Z,8.25
2023-05-08T05:11:18.115Z,8.82
2023-05-08T05:13:19.706Z,8.90
2023-05-08T05:15:21.135Z,8.80
2023-05-08T05:17:23.221Z,7.18
2023-05-08T05:19:24.850Z,7.88
2023-05-08T05:21:26.307Z,7.90
2023-05-08T05:23:27.912Z,7.75
2023-05-08T05:25:29.410Z,7.82
2023-05-08T05:27:30.923Z,7.43
2023-05-08T05:29:32.456Z,8.07
2023-05-08T05:31:33.995Z,7.63
2023-05-08T05:33:35.552Z,7.20
2023-05-08T05:35:37.112Z,6.43
2023-05-08T05:37:38.771Z,6.80
2023-05-08T05:39:40.174Z,5.82
2023-05-08T05:41:41.674Z,5.55
2023-05-08T05:43:43.152Z,5.80
2023-05-08T05:45:44.580Z,6.07
2023-05-08T05:47:46.657Z,5.68
2023-05-08T05:49:48.356Z,5.70
2023-05-08T05:51:49.730Z,7.05
2023-05-08T05:53:51.161Z,6.18
2023-05-08T05:55:52.543Z,5.18
2023-05-08T05:57:53.954Z,5.05
2023-05-08T05:59:55.347Z,3.83
2023-05-08T06:01:57.005Z,4.13
2023-05-08T06:03:58.491Z,3.47
2023-05-08T06:06:00.035Z,3.20
2023-05-08T06:08:01.644Z,3.10
2023-05-08T06:10:03.111Z,3.42
2023-05-08T06:12:04.574Z,3.63
2023-05-08T06:14:06.169Z,3.45
2023-05-08T06:16:07.987Z,3.90
2023-05-08T06:18:09.672Z,4.00
2023-05-08T06:20:11.364Z,3.97
2023-05-08T06:22:12.844Z,4.20
2023-05-08T06:24:14.364Z,4.10
2023-05-08T06:26:15.792Z,4.38
2023-05-08T06:28:17.774Z,3.60
2023-05-08T06:30:19.460Z,3.72
2023-05-08T06:32:21.061Z,3.60
2023-05-08T06:34:22.726Z,4.28
2023-05-08T06:36:24.276Z,4.35
2023-05-08T06:38:25.671Z,3.65
2023-05-08T06:40:27.233Z,3.45
2023-05-08T06:42:28.947Z,4.28
2023-05-08T06:44:30.371Z,3.30
2023-05-08T06:46:32.103Z,3.67
2023-05-08T06:48:34.403Z,3.28
2023-05-08T06:50:39.599Z,3.45
2023-05-08T06:52:41.108Z,3.75
2023-05-08T06:54:42.683Z,3.03
2023-05-08T06:56:44.095Z,3.28
2023-05-08T06:58:56.554Z,3.78
2023-05-08T07:01:06.556Z,3.80
2023-05-08T07:03:08.074Z,3.60
2023-05-08T07:05:09.979Z,3.53
2023-05-08T07:07:11.690Z,3.33
2023-05-08T07:09:13.138Z,3.58
2023-05-08T07:11:14.795Z,3.10
2023-05-08T07:13:17.594Z,3.15
2023-05-08T07:15:25.959Z,2.90
2023-05-08T07:17:27.785Z,2.63
2023-05-08T07:19:29.228Z,2.55
2023-05-08T07:21:30.667Z,2.83
2023-05-08T07:23:32.413Z,2.70
2023-05-08T07:25:33.834Z,2.53
2023-05-08T07:27:35.268Z,3.28
2023-05-08T07:29:39.067Z,2.72
2023-05-08T07:31:40.712Z,2.72
2023-05-08T07:33:42.219Z,2.85
2023-05-08T07:35:43.719Z,3.15
2023-05-08T07:37:45.314Z,2.88
2023-05-08T07:39:46.710Z,2.88
2023-05-08T07:41:49.888Z,2.83
2023-05-08T07:43:51.805Z,2.80
2023-05-08T07:45:53.313Z,3.70
2023-05-08T07:47:57.147Z,3.35
2023-05-08T07:49:58.799Z,3.35
2023-05-08T07:52:00.249Z,2.80
2023-05-08T07:54:01.819Z,2.78
2023-05-08T07:56:03.340Z,2.55
2023-05-08T07:58:04.773Z,2.53
2023-05-08T08:00:09.982Z,2.65
2023-05-08T08:02:11.484Z,2.45
2023-05-08T08:04:15.323Z,2.70
2023-05-08T08:06:17.074Z,2.30
2023-05-08T08:08:18.682Z,2.67
2023-05-08T08:10:20.166Z,2.20
2023-05-08T08:12:21.900Z,2.10
2023-05-08T08:14:23.627Z,2.15
2023-05-08T08:16:25.943Z,2.30
2023-05-08T08:18:27.592Z,2.60
2023-05-08T08:20:29.244Z,2.60
2023-05-08T08:22:30.781Z,2.40
2023-05-08T08:24:32.257Z,2.80
2023-05-08T08:26:33.844Z,2.65
2023-05-08T08:28:35.268Z,2.95
2023-05-08T08:30:36.922Z,2.67
2023-05-08T08:32:38.447Z,2.65
2023-05-08T08:34:39.858Z,2.97
2023-05-08T08:36:41.507Z,2.85
2023-05-08T08:38:42.913Z,2.75
2023-05-08T08:40:44.346Z,2.70
2023-05-08T08:42:45.818Z,2.63
2023-05-08T08:44:47.515Z,2.80
2023-05-08T08:46:51.547Z,3.25
2023-05-08T08:48:57.450Z,2.92
2023-05-08T08:51:06.284Z,2.65
2023-05-08T08:53:19.182Z,3.15
2023-05-08T08:55:22.539Z,2.67
2023-05-08T08:57:27.327Z,2.90
2023-05-08T08:59:29.886Z,2.38
2023-05-08T09:01:34.528Z,2.60
2023-05-08T09:03:36.302Z,2.70
2023-05-08T09:05:38.638Z,2.58
2023-05-08T09:07:40.481Z,3.22
2023-05-08T09:09:43.336Z,3.13
2023-05-08T09:11:46.440Z,2.35
2023-05-08T09:13:48.068Z,2.60
2023-05-08T09:15:49.731Z,2.25
2023-05-08T09:17:51.158Z,2.75
2023-05-08T09:19:53.252Z,2.38
2023-05-08T09:21:55.098Z,2.20
2023-05-08T09:23:56.455Z,2.03
2023-05-08T09:25:58.187Z,2.72
2023-05-08T09:28:17.078Z,3.13
2023-05-08T09:30:18.465Z,2.50
2023-05-08T09:32:20.113Z,2.50
2023-05-08T09:34:29.979Z,2.83
2023-05-08T09:36:31.393Z,2.83
2023-05-08T09:38:37.944Z,2.47
2023-05-08T09:40:39.618Z,2.55
2023-05-08T09:42:41.174Z,3.03
2023-05-08T09:44:53.641Z,3.08
2023-05-08T09:47:16.385Z,2.80
2023-05-08T09:49:18.285Z,2.90
2023-05-08T09:51:20.592Z,2.90
2023-05-08T09:53:31.453Z,2.38
2023-05-08T09:55:46.911Z,2.85
2023-05-08T09:57:56.577Z,2.78
2023-05-08T10:00:05.807Z,2.75
2023-05-08T10:02:11.191Z,2.75
2023-05-08T10:04:13.000Z,2.80
2023-05-08T10:06:15.153Z,2.47
2023-05-08T10:08:21.796Z,2.78
2023-05-08T10:10:28.064Z,3.00
2023-05-08T10:12:30.159Z,2.78
2023-05-08T10:14:31.579Z,3.00
2023-05-08T10:16:44.322Z,2.97
2023-05-08T10:18:50.249Z,2.63
2023-05-08T10:20:55.180Z,2.85
2023-05-08T10:22:57.650Z,2.85
2023-05-08T10:25:02.341Z,3.10
2023-05-08T10:27:52.739Z,2.50
2023-05-08T10:29:56.188Z,2.75
2023-05-08T10:31:59.616Z,2.88
2023-05-08T10:34:02.561Z,2.83
2023-05-08T10:36:05.085Z,2.88
2023-05-08T10:38:08.743Z,2.85
2023-05-08T10:42:15.093Z,2.88
2023-05-08T10:44:17.094Z,2.75
2023-05-08T10:46:29.069Z,17.25
2023-05-08T10:48:52.515Z,44.67
2023-05-08T10:51:06.392Z,3.00
2023-05-08T10:53:15.793Z,3.05
2023-05-08T10:55:29.869Z,3.17
2023-05-08T10:59:36.129Z,3.28
2023-05-08T11:01:39.613Z,3.20
2023-05-08T11:03:46.522Z,3.10
2023-05-08T11:05:50.156Z,3.08
2023-05-08T11:07:59.337Z,6.07
2023-05-08T11:10:13.080Z,6.00
2023-05-08T11:14:24.951Z,3.33
2023-05-08T11:16:54.504Z,3.92
2023-05-08T11:19:18.444Z,4.78
2023-05-08T11:21:21.189Z,5.85
2023-05-08T11:23:34.074Z,3.00
2023-05-08T11:25:42.588Z,3.70
2023-05-08T11:27:46.913Z,4.10
2023-05-08T11:30:25.065Z,4.95
2023-05-08T11:33:11.625Z,3.55
2023-05-08T11:35:13.795Z,3.15
2023-05-08T11:37:23.094Z,3.20
2023-05-08T11:39:24.795Z,2.85
2023-05-08T11:41:26.211Z,5.72
2023-05-08T11:43:33.602Z,5.85
2023-05-08T11:45:41.267Z,14.57
2023-05-08T11:47:44.551Z,9.85
2023-05-08T11:49:46.154Z,9.35
2023-05-08T11:51:53.071Z,3.17
2023-05-08T11:53:54.506Z,2.72
2023-05-08T11:55:56.343Z,3.28
2023-05-08T11:57:57.947Z,3.38
2023-05-08T12:00:12.427Z,3.00
2023-05-08T12:02:14.237Z,2.97
2023-05-08T12:04:15.898Z,3.13
2023-05-08T12:06:18.766Z,2.72
2023-05-08T12:08:20.363Z,2.40
2023-05-08T12:10:21.883Z,3.20
2023-05-08T12:12:23.303Z,2.83
2023-05-08T12:14:25.040Z,2.92
2023-05-08T12:16:26.765Z,2.80
2023-05-08T12:18:28.790Z,3.08
2023-05-08T12:20:32.033Z,3.10
2023-05-08T12:22:35.153Z,3.13
2023-05-08T12:24:36.621Z,3.42
2023-05-08T12:26:38.581Z,2.85
2023-05-08T12:28:40.168Z,5.05
2023-05-08T12:30:42.184Z,2.80
2023-05-08T12:32:44.600Z,2.95
2023-05-08T12:34:46.225Z,3.05
2023-05-08T12:36:47.665Z,2.90
2023-05-08T12:38:51.698Z,2.47
2023-05-08T12:40:53.747Z,2.78
2023-05-08T12:42:55.223Z,2.50
2023-05-08T12:44:57.659Z,2.70
2023-05-08T12:46:59.428Z,2.78
2023-05-08T12:49:02.052Z,2.60
2023-05-08T12:51:04.777Z,2.45
2023-05-08T12:53:08.559Z,3.03
2023-05-08T12:55:23.408Z,2.92
2023-05-08T12:57:24.946Z,3.00
2023-05-08T12:59:32.555Z,5.22
2023-05-08T13:01:33.969Z,3.80
2023-05-08T13:03:36.465Z,2.92
2023-05-08T13:05:42.251Z,3.20
2023-05-08T13:07:43.715Z,2.60
2023-05-08T13:10:01.924Z,3.03
2023-05-08T13:12:03.539Z,3.00
2023-05-08T13:14:04.948Z,2.97
2023-05-08T13:16:07.722Z,3.08
2023-05-08T13:18:09.500Z,2.90
2023-05-08T13:20:11.549Z,2.88
2023-05-08T13:22:13.359Z,2.80
2023-05-08T13:24:15.164Z,2.65
2023-05-08T13:26:16.626Z,2.38
2023-05-08T13:28:18.240Z,2.42
2023-05-08T13:30:19.772Z,2.70
2023-05-08T13:32:21.301Z,2.90
2023-05-08T13:34:22.962Z,2.60
2023-05-08T13:36:24.757Z,7.80
2023-05-08T13:38:26.204Z,22.40
2023-05-08T13:40:28.226Z,4.75
2023-05-08T13:42:29.830Z,3.83
2023-05-08T13:44:31.229Z,3.60
2023-05-08T13:46:32.788Z,2.80
2023-05-08T13:48:34.415Z,2.75
2023-05-08T13:50:35.901Z,11.68
2023-05-08T13:52:38.620Z,5.32
2023-05-08T13:54:40.110Z,20.13
2023-05-08T13:56:41.639Z,6.55
2023-05-08T13:58:43.227Z,3.15
2023-05-08T14:00:44.734Z,2.92
2023-05-08T14:02:46.612Z,2.92
2023-05-08T14:04:48.246Z,5.63
2023-05-08T14:06:50.000Z,3.55
2023-05-08T14:08:54.230Z,3.40
2023-05-08T14:10:56.884Z,3.55
2023-05-08T14:12:58.483Z,3.58
2023-05-08T14:14:59.904Z,3.65
2023-05-08T14:17:01.859Z,3.13
2023-05-08T14:19:03.477Z,6.35
2023-05-08T14:21:04.905Z,7.07
2023-05-08T14:23:06.397Z,3.72
2023-05-08T14:25:08.691Z,6.28
2023-05-08T14:27:10.432Z,5.57
2023-05-08T14:29:12.074Z,3.75
2023-05-08T14:31:13.708Z,7.20
2023-05-08T14:33:17.149Z,3.03
2023-05-08T14:35:20.089Z,2.50
2023-05-08T14:37:21.586Z,3.33
2023-05-08T14:39:23.055Z,5.10
2023-05-08T14:41:28.879Z,3.72
2023-05-08T14:43:30.560Z,4.22
2023-05-08T14:45:31.971Z,5.00
2023-05-08T14:47:33.498Z,4.60
2023-05-08T14:49:38.394Z,5.72
2023-05-08T14:51:40.305Z,4.10
2023-05-08T14:53:42.076Z,3.20
2023-05-08T14:57:49.200Z,6.18
2023-05-08T14:59:55.055Z,3.65
2023-05-08T15:01:56.987Z,3.20
2023-05-08T15:03:58.552Z,3.70
2023-05-08T15:06:00.137Z,3.30
2023-05-08T15:08:01.587Z,3.13
2023-05-08T15:10:03.622Z,3.60
2023-05-08T15:12:05.488Z,2.55
2023-05-08T15:14:06.957Z,3.40
2023-05-08T15:16:08.546Z,2.97
2023-05-08T15:18:10.167Z,6.07
2023-05-08T15:20:11.692Z,4.85
2023-05-08T15:22:13.462Z,4.35
2023-05-08T15:24:14.972Z,2.50
2023-05-08T15:26:16.447Z,2.92
2023-05-08T15:28:17.956Z,3.70
2023-05-08T15:30:20.503Z,2.70
2023-05-08T15:32:22.161Z,5.15
2023-05-08T15:34:26.371Z,3.25
2023-05-08T15:36:30.500Z,4.47
2023-05-08T15:38:32.029Z,2.95
2023-05-08T15:40:33.983Z,3.03
2023-05-08T15:42:35.589Z,6.28
2023-05-08T15:44:53.906Z,2.67
2023-05-08T15:46:56.402Z,2.60
2023-05-08T15:48:58.558Z,2.80
2023-05-08T15:51:01.327Z,4.53
2023-05-08T15:53:02.770Z,6.10
2023-05-08T15:55:05.357Z,5.78
2023-05-08T15:57:06.840Z,13.25
2023-05-08T15:59:08.292Z,3.17
2023-05-08T16:01:09.816Z,8.13
2023-05-08T16:03:11.562Z,15.27
2023-05-08T16:05:13.315Z,13.23
2023-05-08T16:07:15.100Z,14.35
2023-05-08T16:09:16.509Z,8.77
2023-05-08T16:11:17.910Z,10.23
2023-05-08T16:13:19.698Z,7.80
2023-05-08T16:15:21.321Z,12.07
2023-05-08T16:17:22.771Z,5.60
2023-05-08T16:19:24.521Z,26.55
2023-05-08T16:21:25.999Z,16.00
2023-05-08T16:23:27.419Z,6.60
2023-05-08T16:25:28.897Z,3.40
2023-05-08T16:27:30.447Z,8.98
2023-05-08T16:29:31.851Z,11.07
2023-05-08T16:31:33.606Z,3.25
2023-05-08T16:33:35.187Z,8.35
2023-05-08T16:35:36.621Z,3.45
2023-05-08T16:37:38.198Z,6.00
2023-05-08T16:39:39.832Z,6.00
2023-05-08T16:41:41.233Z,7.30
2023-05-08T16:43:42.749Z,6.05
2023-05-08T16:45:44.420Z,5.15
2023-05-08T16:47:46.072Z,6.53
2023-05-08T16:49:47.675Z,6.38
2023-05-08T16:51:49.346Z,6.43
2023-05-08T16:53:50.752Z,16.65
2023-05-08T16:55:52.185Z,11.48
2023-05-08T16:57:53.676Z,9.57
2023-05-08T16:59:55.087Z,13.80
2023-05-08T17:01:56.692Z,10.45
2023-05-08T17:03:58.300Z,20.85
2023-05-08T17:05:59.737Z,4.95
2023-05-08T17:08:01.351Z,4.80
2023-05-08T17:10:02.924Z,13.05
2023-05-08T17:12:04.710Z,10.52
2023-05-08T17:14:06.248Z,10.27
2023-05-08T17:16:07.777Z,7.18
2023-05-08T17:18:09.228Z,5.43
2023-05-08T17:20:11.818Z,7.10
2023-05-08T17:22:13.653Z,8.10
2023-05-08T17:24:15.037Z,13.98
2023-05-08T17:26:18.103Z,13.20
2023-05-08T17:28:19.532Z,14.10
2023-05-08T17:30:20.978Z,25.98
2023-05-08T17:32:22.565Z,17.02
2023-05-08T17:34:24.187Z,18.38
2023-05-08T17:36:25.637Z,12.18
2023-05-08T17:38:27.258Z,5.72
2023-05-08T17:40:28.879Z,6.00
2023-05-08T17:42:30.291Z,4.18
2023-05-08T17:44:31.950Z,10.52
2023-05-08T17:46:33.455Z,39.10
2023-05-08T17:48:35.248Z,50.10
2023-05-08T17:50:36.953Z,30.48
2023-05-08T17:52:38.570Z,29.50
2023-05-08T17:54:39.985Z,21.88
2023-05-08T17:56:41.508Z,101.25
2023-05-08T17:58:42.994Z,44.17
2023-05-08T18:00:44.428Z,29.25
2023-05-08T18:02:46.098Z,24.98
2023-05-08T18:04:47.791Z,30.42
2023-05-08T18:06:49.247Z,9.75
2023-05-08T18:08:50.839Z,10.05
2023-05-08T18:10:52.454Z,7.10
2023-05-08T18:12:53.938Z,7.03
2023-05-08T18:14:55.649Z,7.35
2023-05-08T18:16:57.394Z,8.98
2023-05-08T18:18:58.819Z,8.02
2023-05-08T18:21:00.441Z,8.15
2023-05-08T18:23:01.984Z,7.18
2023-05-08T18:25:03.596Z,8.52
2023-05-08T18:27:05.201Z,97.40
2023-05-08T18:29:07.424Z,146.65
2023-05-08T18:31:09.303Z,119.72
2023-05-08T18:33:10.875Z,40.25
2023-05-08T18:35:12.521Z,13.23
2023-05-08T18:37:13.946Z,30.92
2023-05-08T18:39:15.547Z,29.92
2023-05-08T18:41:17.032Z,18.52
2023-05-08T18:43:18.429Z,13.98
2023-05-08T18:45:19.979Z,9.18
2023-05-08T18:47:21.646Z,6.68
2023-05-08T18:49:23.040Z,5.63
2023-05-08T18:51:24.660Z,10.85
2023-05-08T18:53:26.360Z,7.10
2023-05-08T18:55:27.791Z,4.53
2023-05-08T18:57:29.270Z,5.07
2023-05-08T18:59:30.840Z,8.35
2023-05-08T19:01:32.268Z,14.52
2023-05-08T19:03:33.951Z,13.55
2023-05-08T19:05:35.375Z,12.32
2023-05-08T19:07:37.214Z,11.02
2023-05-08T19:09:38.750Z,12.13
2023-05-08T19:11:40.333Z,9.25
2023-05-08T19:13:41.748Z,6.50
2023-05-08T19:15:43.366Z,8.45
2023-05-08T19:17:45.508Z,8.30
2023-05-08T19:19:49.051Z,10.35
2023-05-08T19:21:50.599Z,11.27
2023-05-08T19:23:52.066Z,10.63
2023-05-08T19:25:53.559Z,21.30
2023-05-08T19:27:55.089Z,15.88
2023-05-08T19:29:56.506Z,15.55
2023-05-08T19:31:57.994Z,19.33
2023-05-08T19:34:00.392Z,26.50
2023-05-08T19:36:01.822Z,32.88
2023-05-08T19:38:03.203Z,27.13
2023-05-08T19:40:05.810Z,23.80
2023-05-08T19:42:07.208Z,16.35
2023-05-08T19:44:08.781Z,17.40
2023-05-08T19:46:10.387Z,21.27
2023-05-08T19:48:17.858Z,18.48
2023-05-08T19:50:19.914Z,16.60
2023-05-08T19:52:21.484Z,19.83
2023-05-08T19:54:22.862Z,22.80
2023-05-08T19:56:24.374Z,21.10
2023-05-08T19:58:25.952Z,28.48
2023-05-08T20:00:27.358Z,48.00
2023-05-08T20:02:28.995Z,35.75
2023-05-08T20:04:30.694Z,44.67
2023-05-08T20:06:32.792Z,38.83
2023-05-08T20:08:34.296Z,40.47
2023-05-08T20:10:35.828Z,29.48
2023-05-08T20:12:37.240Z,25.40
2023-05-08T20:14:38.734Z,24.58
2023-05-08T20:16:40.374Z,25.20
2023-05-08T20:18:41.924Z,23.42
2023-05-08T20:20:43.373Z,26.65
2023-05-08T20:22:44.926Z,45.47
2023-05-08T20:24:46.326Z,23.95
2023-05-08T20:26:47.761Z,24.20
2023-05-08T20:28:49.189Z,29.08
2023-05-08T20:30:50.635Z,32.15
2023-05-08T20:32:52.293Z,22.90
2023-05-08T20:34:53.739Z,17.80
2023-05-08T20:36:56.002Z,15.52
2023-05-08T20:38:57.527Z,14.20
2023-05-08T20:41:01.035Z,13.65
2023-05-08T20:43:02.838Z,16.70
2023-05-08T20:45:04.637Z,15.95
2023-05-08T20:47:06.310Z,15.65
2023-05-08T20:49:07.786Z,17.23
2023-05-08T20:51:09.285Z,16.40
2023-05-08T20:53:10.723Z,19.02
2023-05-08T20:55:12.313Z,20.05
2023-05-08T20:57:14.285Z,25.67
2023-05-08T20:59:15.686Z,23.77
2023-05-08T21:01:19.217Z,22.20
2023-05-08T21:03:22.260Z,24.10
2023-05-08T21:05:23.807Z,24.50
2023-05-08T21:07:28.099Z,20.35
2023-05-08T21:09:29.589Z,18.58
2023-05-08T21:11:31.134Z,18.92
2023-05-08T21:13:32.730Z,19.90
2023-05-08T21:15:34.211Z,20.58
2023-05-08T21:17:35.732Z,22.38
2023-05-08T21:19:37.214Z,26.55
2023-05-08T21:21:38.666Z,26.80
2023-05-08T21:23:40.399Z,32.72
2023-05-08T21:25:41.816Z,34.05
2023-05-08T21:27:43.772Z,34.70
2023-05-08T21:29:45.357Z,32.08
2023-05-08T21:31:46.870Z,26.42
2023-05-08T21:33:48.371Z,27.95
2023-05-08T21:35:49.997Z,21.95
2023-05-08T21:37:53.822Z,23.85
2023-05-08T21:39:56.073Z,25.38
2023-05-08T21:41:57.620Z,23.10
2023-05-08T21:43:59.057Z,22.77
2023-05-08T21:46:00.758Z,22.50
2023-05-08T21:48:02.673Z,22.17
2023-05-08T21:50:04.260Z,21.98
2023-05-08T21:52:05.742Z,20.30
2023-05-08T21:54:07.689Z,22.67
2023-05-08T21:56:09.145Z,21.35
2023-05-08T21:58:10.553Z,22.95
2023-05-08T22:00:12.770Z,25.83
2023-05-08T22:02:14.219Z,25.10
2023-05-08T22:04:15.612Z,24.33
2023-05-08T22:06:17.124Z,25.88
2023-05-08T22:08:18.515Z,29.45
2023-05-08T22:10:19.953Z,29.48
2023-05-08T22:12:21.465Z,29.00
2023-05-08T22:14:22.908Z,25.63
2023-05-08T22:16:24.400Z,25.23
2023-05-08T22:18:25.997Z,31.90
2023-05-08T22:20:27.470Z,32.58
2023-05-08T22:22:28.932Z,26.88
2023-05-08T22:24:30.487Z,24.85
2023-05-08T22:26:31.874Z,25.10
2023-05-08T22:28:33.365Z,24.30
2023-05-08T22:30:34.855Z,23.02
2023-05-08T22:32:36.382Z,23.17
2023-05-08T22:34:37.953Z,23.83
2023-05-08T22:36:39.535Z,27.02
2023-05-08T22:38:40.940Z,25.48
2023-05-08T22:40:42.523Z,22.98
2023-05-08T22:42:44.943Z,21.33
2023-05-08T22:44:46.447Z,23.50
2023-05-08T22:46:48.084Z,21.80
2023-05-08T22:48:50.912Z,23.27
2023-05-08T22:50:52.350Z,23.58
2023-05-08T22:52:53.892Z,23.42
2023-05-08T22:54:55.454Z,25.08
2023-05-08T22:56:56.859Z,35.08
2023-05-08T22:58:58.343Z,24.63
2023-05-08T23:01:00.008Z,21.08
2023-05-08T23:03:01.515Z,20.95
2023-05-08T23:05:03.204Z,21.75
2023-05-08T23:07:04.831Z,36.70
2023-05-08T23:09:06.241Z,32.15
2023-05-08T23:11:07.800Z,28.60
2023-05-08T23:13:09.641Z,24.77
2023-05-08T23:15:11.972Z,22.60
2023-05-08T23:17:13.877Z,26.67
2023-05-08T23:19:16.663Z,26.35
2023-05-08T23:21:18.075Z,27.50
2023-05-08T23:23:19.556Z,30.23
2023-05-08T23:25:21.382Z,29.08
2023-05-08T23:27:22.846Z,30.50
2023-05-08T23:29:24.427Z,29.35
2023-05-08T23:31:26.018Z,27.52
2023-05-08T23:33:28.344Z,23.75
2023-05-08T23:35:29.848Z,24.40
2023-05-08T23:37:31.473Z,22.52
2023-05-08T23:39:33.456Z,21.48
2023-05-08T23:41:35.208Z,21.98
2023-05-08T23:43:37.272Z,22.13
2023-05-08T23:45:38.699Z,20.27
2023-05-08T23:47:40.665Z,21.95
2023-05-08T23:49:42.082Z,19.83
2023-05-08T23:51:43.482Z,24.75
2023-05-08T23:53:45.090Z,21.00
2023-05-08T23:55:49.923Z,21.65
2023-05-08T23:57:51.468Z,21.92
2023-05-08T23:59:53.176Z,21.05
